createdAt,value
2019-03-30T00:02:17.013Z,93.30
2019-03-30T00:04:45.828Z,93.30
2019-03-30T00:07:14.680Z,93.40
2019-03-30T00:09:43.590Z,93.30
2019-03-30T00:12:12.442Z,93.40
2019-03-30T00:14:41.267Z,93.20
2019-03-30T00:17:10.103Z,93.10
2019-03-30T00:19:38.943Z,93.10
2019-03-30T00:22:08.172Z,93.20
2019-03-30T00:24:36.960Z,93.20
2019-03-30T00:27:05.762Z,93.20
2019-03-30T00:29:34.614Z,93.10
2019-03-30T00:32:03.442Z,93.20
2019-03-30T00:34:32.235Z,93.20
2019-03-30T00:37:01.078Z,93.00
2019-03-30T00:39:29.979Z,92.90
2019-03-30T00:41:58.864Z,92.80
2019-03-30T00:44:27.712Z,92.70
2019-03-30T00:46:56.510Z,92.70
2019-03-30T00:49:25.484Z,92.60
2019-03-30T00:51:54.996Z,92.50
2019-03-30T00:54:23.796Z,92.40
2019-03-30T00:56:52.739Z,92.30
2019-03-30T00:59:21.612Z,92.30
2019-03-30T01:01:50.442Z,92.30
2019-03-30T01:04:19.229Z,92.20
2019-03-30T01:06:48.085Z,92.20
2019-03-30T01:09:17.433Z,92.20
2019-03-30T01:11:46.245Z,92.20
2019-03-30T01:14:15.164Z,92.10
2019-03-30T01:16:44.174Z,92.40
2019-03-30T01:19:12.984Z,92.00
2019-03-30T01:21:41.951Z,92.00
2019-03-30T01:24:10.783Z,92.10
2019-03-30T01:26:39.624Z,92.00
2019-03-30T01:29:08.446Z,91.80
2019-03-30T01:31:37.253Z,91.80
2019-03-30T01:34:06.052Z,91.80
2019-03-30T01:36:34.937Z,91.90
2019-03-30T01:39:04.641Z,92.10
2019-03-30T01:41:33.463Z,91.80
2019-03-30T01:44:02.313Z,92.20
2019-03-30T01:46:31.197Z,91.90
2019-03-30T01:49:00.100Z,91.90
2019-03-30T01:51:28.935Z,91.90
2019-03-30T01:53:57.758Z,91.90
2019-03-30T01:56:26.692Z,91.90
2019-03-30T01:58:55.503Z,91.80
2019-03-30T02:01:24.311Z,91.70
2019-03-30T02:03:53.136Z,91.70
2019-03-30T02:06:22.006Z,91.60
2019-03-30T02:08:50.899Z,91.80
2019-03-30T02:11:19.704Z,91.70
2019-03-30T02:13:48.543Z,91.70
2019-03-30T02:16:17.489Z,91.70
2019-03-30T02:18:46.380Z,91.70
2019-03-30T02:21:15.302Z,91.70
2019-03-30T02:23:44.215Z,91.70
2019-03-30T02:26:13.168Z,91.70
2019-03-30T02:28:41.970Z,91.70
2019-03-30T02:31:10.790Z,91.80
2019-03-30T02:33:39.725Z,91.90
2019-03-30T02:36:08.583Z,91.90
2019-03-30T02:38:37.509Z,92.00
2019-03-30T02:41:06.307Z,92.10
2019-03-30T02:43:35.193Z,92.10
2019-03-30T02:46:04.010Z,92.10
2019-03-30T02:48:32.959Z,92.00
2019-03-30T02:51:01.788Z,92.00
2019-03-30T02:53:30.725Z,91.90
2019-03-30T02:55:59.640Z,92.00
2019-03-30T02:58:28.531Z,92.00
2019-03-30T03:00:57.313Z,92.00
2019-03-30T03:03:26.118Z,92.00
2019-03-30T03:05:54.956Z,92.10
2019-03-30T03:08:23.797Z,92.00
2019-03-30T03:10:52.625Z,92.00
2019-03-30T03:13:21.467Z,92.10
2019-03-30T03:15:50.279Z,92.00
2019-03-30T03:18:19.077Z,92.10
2019-03-30T03:21:06.148Z,92.10
2019-03-30T03:23:18.389Z,92.10
2019-03-30T03:25:47.256Z,92.50
2019-03-30T03:28:16.146Z,92.00
2019-03-30T03:30:45.052Z,91.90
2019-03-30T03:33:13.819Z,91.80
2019-03-30T03:35:42.673Z,92.00
2019-03-30T03:38:46.401Z,92.10
2019-03-30T03:41:15.235Z,92.20
2019-03-30T03:43:44.062Z,92.00
2019-03-30T03:46:12.869Z,92.00
2019-03-30T03:48:41.806Z,91.90
2019-03-30T03:51:25.522Z,91.80
2019-03-30T05:41:24.117Z,98.30
2019-03-30T06:01:02.962Z,97.80
2019-03-30T06:03:31.808Z,97.50
2019-03-30T06:06:00.604Z,97.50
2019-03-30T06:08:29.431Z,97.30
2019-03-30T06:10:58.245Z,97.20
2019-03-30T06:13:27.107Z,96.90
2019-03-30T06:15:55.996Z,97.20
2019-03-30T06:18:25.974Z,97.20
2019-03-30T06:20:54.928Z,97.00
2019-03-30T06:23:25.230Z,97.20
2019-03-30T06:25:54.158Z,97.20
2019-03-30T06:28:23.156Z,97.30
2019-03-30T06:30:52.025Z,97.50
2019-03-30T06:33:20.897Z,97.90
2019-03-30T06:35:49.729Z,97.80
2019-03-30T06:38:18.599Z,97.50
2019-03-30T06:40:47.394Z,97.30
2019-03-30T06:43:16.638Z,97.90
2019-03-30T06:45:45.556Z,97.60
2019-03-30T06:48:14.504Z,97.60
2019-03-30T06:50:43.367Z,97.20
2019-03-30T06:53:12.272Z,97.20
2019-03-30T06:55:41.091Z,96.70
2019-03-30T06:58:09.887Z,96.30
2019-03-30T07:00:38.717Z,96.40
2019-03-30T07:03:08.099Z,96.30
2019-03-30T07:05:39.076Z,96.30
2019-03-30T07:08:10.939Z,96.20
2019-03-30T07:10:39.791Z,96.40
2019-03-30T07:13:08.982Z,96.60
2019-03-30T07:15:43.304Z,96.50
2019-03-30T07:18:13.013Z,97.00
2019-03-30T07:20:41.860Z,97.10
2019-03-30T07:23:12.363Z,97.70
2019-03-30T07:25:41.154Z,97.40
2019-03-30T07:28:09.965Z,97.70
2019-03-30T07:30:38.792Z,97.30
2019-03-30T07:33:07.599Z,97.80
2019-03-30T07:35:36.398Z,98.40
2019-03-30T07:38:05.315Z,98.90
2019-03-30T07:40:36.742Z,99.50
2019-03-30T07:43:05.541Z,99.10
2019-03-30T07:45:34.399Z,99.10
2019-03-30T07:48:03.199Z,99.90
2019-03-30T07:50:33.506Z,98.70
2019-03-30T07:53:03.392Z,99.20
2019-03-30T07:55:32.297Z,99.20
2019-03-30T07:58:01.390Z,98.70
2019-03-30T08:00:31.085Z,99.60
2019-03-30T08:03:00.166Z,99.90
2019-03-30T08:05:28.905Z,98.80
2019-03-30T08:07:57.733Z,99.90
2019-03-30T08:10:28.037Z,99.10
2019-03-30T08:12:56.855Z,99.60
2019-03-30T08:15:25.687Z,99.30
2019-03-30T08:17:54.918Z,98.60
2019-03-30T08:20:23.838Z,97.70
2019-03-30T08:22:52.678Z,98.40
2019-03-30T08:25:21.639Z,98.30
2019-03-30T08:27:50.475Z,97.90
2019-03-30T08:30:21.033Z,97.90
2019-03-30T08:32:49.931Z,97.20
2019-03-30T08:35:18.807Z,96.10
2019-03-30T08:37:47.652Z,97.80
2019-03-30T08:40:16.450Z,97.10
2019-03-30T08:42:45.270Z,96.20
2019-03-30T08:45:14.187Z,96.20
2019-03-30T08:47:42.990Z,96.40
2019-03-30T08:50:12.207Z,96.10
2019-03-30T08:52:41.051Z,96.30
2019-03-30T08:55:10.430Z,96.20
2019-03-30T08:57:39.241Z,95.50
2019-03-30T09:00:08.903Z,95.60
2019-03-30T09:02:37.686Z,96.00
2019-03-30T09:05:08.054Z,95.30
2019-03-30T09:07:36.901Z,95.60
2019-03-30T09:10:09.172Z,94.70
2019-03-30T09:12:38.225Z,95.00
2019-03-30T09:15:08.270Z,95.50
2019-03-30T09:17:37.425Z,94.90
2019-03-30T09:20:07.773Z,94.60
2019-03-30T09:22:36.639Z,94.30
2019-03-30T09:25:05.818Z,94.50
2019-03-30T09:27:34.630Z,94.30
2019-03-30T09:30:03.767Z,94.30
2019-03-30T09:32:32.673Z,94.20
2019-03-30T09:35:01.486Z,93.80
2019-03-30T09:37:30.435Z,93.00
2019-03-30T09:39:59.239Z,93.40
2019-03-30T09:42:28.090Z,92.90
2019-03-30T09:44:57.467Z,92.90
2019-03-30T09:47:26.298Z,92.40
2019-03-30T09:49:55.122Z,92.30
2019-03-30T09:52:23.942Z,91.70
2019-03-30T09:54:53.376Z,90.90
2019-03-30T09:57:22.194Z,91.70
2019-03-30T09:59:51.130Z,91.40
2019-03-30T10:02:21.406Z,91.50
2019-03-30T10:04:50.262Z,90.30
2019-03-30T10:07:19.073Z,90.60
2019-03-30T10:09:47.857Z,90.40
2019-03-30T10:12:16.702Z,88.30
2019-03-30T10:14:45.564Z,88.40
2019-03-30T10:17:14.420Z,86.80
2019-03-30T10:19:43.196Z,89.80
2019-03-30T10:22:12.026Z,85.40
2019-03-30T10:24:40.954Z,86.70
2019-03-30T10:27:09.780Z,86.00
2019-03-30T10:29:38.610Z,86.10
2019-03-30T10:32:07.429Z,88.20
2019-03-30T10:34:39.449Z,86.80
2019-03-30T10:37:06.886Z,84.50
2019-03-30T10:39:35.699Z,84.50
2019-03-30T10:42:04.648Z,83.80
2019-03-30T10:44:33.457Z,83.40
2019-03-30T10:47:02.280Z,85.40
2019-03-30T10:49:31.461Z,83.50
2019-03-30T10:52:00.325Z,84.30
2019-03-30T10:54:29.135Z,82.80
2019-03-30T10:56:57.962Z,82.10
2019-03-30T10:59:27.024Z,82.00
2019-03-30T11:01:55.793Z,81.50
2019-03-30T11:04:24.701Z,80.10
2019-03-30T11:06:53.521Z,79.40
2019-03-30T11:09:22.444Z,78.30
2019-03-30T11:11:51.275Z,77.90
2019-03-30T11:14:20.103Z,78.20
2019-03-30T11:16:49.005Z,73.60
2019-03-30T11:19:17.821Z,75.50
2019-03-30T11:21:46.627Z,74.10
2019-03-30T11:24:15.498Z,73.90
2019-03-30T11:26:44.411Z,72.90
2019-03-30T11:29:13.284Z,72.60
2019-03-30T11:31:42.096Z,72.00
2019-03-30T11:34:10.918Z,72.70
2019-03-30T11:36:39.870Z,74.70
2019-03-30T11:39:08.797Z,72.40
2019-03-30T11:41:37.757Z,71.20
2019-03-30T11:44:06.580Z,71.60
2019-03-30T11:46:35.471Z,70.30
2019-03-30T11:49:04.298Z,68.00
2019-03-30T11:51:33.178Z,68.40
2019-03-30T11:54:02.105Z,67.20
2019-03-30T11:56:30.906Z,64.50
2019-03-30T11:58:59.728Z,63.90
2019-03-30T12:01:28.576Z,63.80
2019-03-30T12:03:57.449Z,61.80
2019-03-30T12:06:26.300Z,63.40
2019-03-30T12:08:55.105Z,63.00
2019-03-30T12:11:23.932Z,60.70
2019-03-30T12:13:52.785Z,60.40
2019-03-30T12:16:21.818Z,60.60
2019-03-30T12:18:50.614Z,62.10
2019-03-30T12:21:19.598Z,60.20
2019-03-30T12:23:48.420Z,61.40
2019-03-30T12:26:17.210Z,59.00
2019-03-30T12:28:46.168Z,58.20
2019-03-30T12:31:14.968Z,58.50
2019-03-30T12:33:43.785Z,59.10
2019-03-30T12:36:12.642Z,59.10
2019-03-30T12:38:41.448Z,57.80
2019-03-30T12:41:10.622Z,58.70
2019-03-30T12:43:39.562Z,56.90
2019-03-30T12:46:08.507Z,58.50
2019-03-30T12:48:37.305Z,59.00
2019-03-30T12:51:06.161Z,58.70
2019-03-30T12:53:34.969Z,58.20
2019-03-30T12:56:04.616Z,58.80
2019-03-30T12:58:33.469Z,58.60
2019-03-30T13:01:02.275Z,58.00
2019-03-30T13:03:31.095Z,58.40
2019-03-30T13:05:59.939Z,57.60
2019-03-30T13:08:28.766Z,57.00
2019-03-30T13:10:57.601Z,56.40
2019-03-30T13:13:26.447Z,57.60
2019-03-30T13:15:55.298Z,56.90
2019-03-30T13:18:24.158Z,57.60
2019-03-30T13:20:52.989Z,58.60
2019-03-30T13:23:21.811Z,58.00
2019-03-30T13:26:02.925Z,56.60
2019-03-30T13:28:21.230Z,56.90
2019-03-30T13:30:50.054Z,54.70
2019-03-30T13:33:18.866Z,54.10
2019-03-30T13:35:47.738Z,55.00
2019-03-30T13:38:16.544Z,54.70
2019-03-30T13:40:45.350Z,54.40
2019-03-30T13:43:14.194Z,54.70
2019-03-30T13:45:43.013Z,55.60
2019-03-30T13:48:11.825Z,54.00
2019-03-30T13:50:40.790Z,55.10
2019-03-30T13:53:09.643Z,56.60
2019-03-30T13:55:38.503Z,56.70
2019-03-30T13:58:07.346Z,59.60
2019-03-30T14:00:36.189Z,63.60
2019-03-30T14:03:05.092Z,64.60
2019-03-30T14:05:33.914Z,64.70
2019-03-30T14:08:02.839Z,65.10
2019-03-30T14:10:32.346Z,65.20
2019-03-30T14:13:01.160Z,65.10
2019-03-30T14:15:30.111Z,65.40
2019-03-30T14:17:58.927Z,63.80
2019-03-30T14:20:27.761Z,63.90
2019-03-30T14:22:58.088Z,63.80
2019-03-30T14:25:26.922Z,63.30
2019-03-30T14:27:55.738Z,61.50
2019-03-30T14:30:24.585Z,62.50
2019-03-30T14:32:53.414Z,63.50
2019-03-30T14:35:22.223Z,64.80
2019-03-30T14:37:51.073Z,69.00
2019-03-30T14:40:19.917Z,74.10
2019-03-30T14:42:48.719Z,72.30
2019-03-30T14:45:17.661Z,70.90
2019-03-30T14:47:46.509Z,70.20
2019-03-30T14:50:15.498Z,67.60
2019-03-30T14:52:44.421Z,68.70
2019-03-30T14:55:13.262Z,67.60
2019-03-30T14:57:42.085Z,67.30
2019-03-30T15:00:11.564Z,70.90
2019-03-30T15:02:40.597Z,71.70
2019-03-30T15:05:09.773Z,73.10
2019-03-30T15:07:38.602Z,73.10
2019-03-30T15:10:09.578Z,72.80
2019-03-30T15:12:38.812Z,71.70
2019-03-30T15:15:11.679Z,70.80
2019-03-30T15:17:41.356Z,68.20
2019-03-30T15:20:11.508Z,67.80
2019-03-30T15:22:40.381Z,67.80
2019-03-30T15:25:10.480Z,64.30
2019-03-30T15:27:39.362Z,63.10
2019-03-30T15:30:08.814Z,60.90
2019-03-30T15:32:37.638Z,58.10
2019-03-30T15:35:08.638Z,58.10
2019-03-30T15:37:37.494Z,59.70
2019-03-30T15:40:06.828Z,59.80
2019-03-30T15:42:35.821Z,62.50
2019-03-30T15:45:07.548Z,66.50
2019-03-30T15:47:36.371Z,68.80
2019-03-30T15:50:09.745Z,68.60
2019-03-30T15:52:38.610Z,69.80
2019-03-30T15:55:08.331Z,70.10
2019-03-30T15:57:37.344Z,70.90
2019-03-30T16:00:11.373Z,68.20
2019-03-30T16:02:40.202Z,68.00
2019-03-30T16:05:09.124Z,68.50
2019-03-30T16:07:37.959Z,68.00
2019-03-30T16:10:06.877Z,67.80
2019-03-30T16:12:35.674Z,65.80
2019-03-30T16:15:06.117Z,66.00
2019-03-30T16:17:34.917Z,63.20
2019-03-30T16:20:06.189Z,61.50
2019-03-30T16:22:34.998Z,61.10
2019-03-30T16:25:07.962Z,62.10
2019-03-30T16:27:39.169Z,60.10
2019-03-30T16:30:08.961Z,60.00
2019-03-30T16:32:37.767Z,60.00
2019-03-30T16:35:06.680Z,61.10
2019-03-30T16:37:35.511Z,61.30
2019-03-30T16:40:05.225Z,58.40
2019-03-30T16:42:34.066Z,57.40
2019-03-30T16:45:02.980Z,57.40
2019-03-30T16:47:31.803Z,58.10
2019-03-30T16:50:00.684Z,58.70
2019-03-30T16:52:32.530Z,58.80
2019-03-30T16:55:01.368Z,59.70
2019-03-30T16:57:42.356Z,60.00
2019-03-30T17:00:02.987Z,59.60
2019-03-30T17:02:31.762Z,60.60
2019-03-30T17:05:00.822Z,59.30
2019-03-30T17:07:29.779Z,58.70
2019-03-30T17:09:58.672Z,58.50
2019-03-30T17:12:27.693Z,58.20
2019-03-30T17:14:57.839Z,59.40
2019-03-30T17:17:26.745Z,59.40
2019-03-30T17:19:55.809Z,60.40
2019-03-30T17:22:25.268Z,60.70
2019-03-30T17:24:54.070Z,60.50
2019-03-30T17:27:23.000Z,60.70
2019-03-30T17:29:51.778Z,61.00
2019-03-30T17:32:20.738Z,61.00
2019-03-30T17:34:49.624Z,61.50
2019-03-30T17:37:18.416Z,61.70
2019-03-30T17:39:47.223Z,62.10
2019-03-30T17:42:18.000Z,62.50
2019-03-30T17:44:46.584Z,63.20
2019-03-30T17:47:15.427Z,63.30
2019-03-30T17:49:44.562Z,62.00
2019-03-30T17:52:13.507Z,62.30
2019-03-30T17:54:42.403Z,62.50
2019-03-30T17:57:11.211Z,63.30
2019-03-30T17:59:40.041Z,63.40
2019-03-30T18:02:08.896Z,63.50
2019-03-30T18:04:39.041Z,64.40
2019-03-30T18:07:08.151Z,65.20
2019-03-30T18:09:36.963Z,65.70
2019-03-30T18:12:05.934Z,65.90
2019-03-30T18:14:34.974Z,66.00
2019-03-30T18:17:03.816Z,66.30
2019-03-30T18:19:32.659Z,65.40
2019-03-30T18:22:01.492Z,65.70
2019-03-30T18:24:30.285Z,65.10
2019-03-30T18:26:59.114Z,65.00
2019-03-30T18:29:27.963Z,64.70
2019-03-30T18:31:57.101Z,65.00
2019-03-30T18:34:26.410Z,65.80
2019-03-30T18:36:56.450Z,64.70
2019-03-30T18:39:25.266Z,64.70
2019-03-30T18:41:54.079Z,65.30
2019-03-30T18:44:22.919Z,65.30
2019-03-30T18:46:51.764Z,65.50
2019-03-30T18:49:20.587Z,66.40
2019-03-30T18:51:50.646Z,66.80
2019-03-30T18:54:20.269Z,66.80
2019-03-30T18:56:49.074Z,67.60
2019-03-30T18:59:17.930Z,67.40
2019-03-30T19:01:46.749Z,67.40
2019-03-30T19:04:15.644Z,68.00
2019-03-30T19:06:44.530Z,68.30
2019-03-30T19:09:13.337Z,68.70
2019-03-30T19:11:42.306Z,69.70
2019-03-30T19:14:11.346Z,70.00
2019-03-30T19:16:40.343Z,70.10
2019-03-30T19:19:09.183Z,70.40
2019-03-30T19:21:38.017Z,70.90
2019-03-30T19:24:06.892Z,70.70
2019-03-30T19:26:35.816Z,69.60
2019-03-30T19:29:04.828Z,70.50
2019-03-30T19:31:33.569Z,69.70
2019-03-30T19:34:04.941Z,70.20
2019-03-30T19:36:33.786Z,70.60
2019-03-30T19:39:02.594Z,70.90
2019-03-30T19:41:31.434Z,71.60
2019-03-30T19:44:01.284Z,71.90
2019-03-30T19:46:30.136Z,72.50
2019-03-30T19:48:59.014Z,72.50
2019-03-30T19:51:27.848Z,72.70
2019-03-30T19:53:59.809Z,72.70
2019-03-30T19:56:27.271Z,72.80
2019-03-30T19:59:09.781Z,72.80
2019-03-30T20:01:26.634Z,72.40
2019-03-30T20:03:55.512Z,72.30
2019-03-30T20:06:25.431Z,72.10
2019-03-30T20:08:56.554Z,72.00
2019-03-30T20:11:25.633Z,71.80
2019-03-30T20:13:54.587Z,71.60
2019-03-30T20:16:24.026Z,71.70
2019-03-30T20:19:10.694Z,72.00
2019-03-30T20:21:23.322Z,71.70
2019-03-30T20:23:52.133Z,71.50
2019-03-30T20:26:21.026Z,71.20
2019-03-30T20:28:49.832Z,71.30
2019-03-30T20:31:18.643Z,71.20
2019-03-30T20:33:47.481Z,70.80
2019-03-30T20:36:16.452Z,70.90
2019-03-30T20:38:45.739Z,70.10
2019-03-30T20:41:14.556Z,68.70
2019-03-30T20:43:43.393Z,69.20
2019-03-30T20:46:12.309Z,69.70
2019-03-30T20:48:41.149Z,69.60
2019-03-30T20:51:10.369Z,69.10
2019-03-30T20:53:39.294Z,69.80
2019-03-30T20:56:08.117Z,70.80
2019-03-30T20:58:36.979Z,70.70
2019-03-30T21:01:05.862Z,71.40
2019-03-30T21:03:34.656Z,72.10
2019-03-30T21:06:03.488Z,71.90
2019-03-30T21:08:32.371Z,72.40
2019-03-30T21:11:02.946Z,73.40
2019-03-30T21:13:31.753Z,74.50
2019-03-30T21:16:02.019Z,74.70
2019-03-30T21:18:32.319Z,75.40
2019-03-30T21:21:01.248Z,76.20
2019-03-30T21:23:30.104Z,76.50
2019-03-30T21:25:58.962Z,75.70
2019-03-30T21:28:27.758Z,77.10
2019-03-30T21:30:56.592Z,86.80
2019-03-30T21:33:25.496Z,83.50
2019-03-30T21:35:54.426Z,89.00
2019-03-30T21:38:23.303Z,91.20
2019-03-30T21:40:52.134Z,91.10
2019-03-30T21:43:20.946Z,90.10
2019-03-30T21:45:49.857Z,89.40
2019-03-30T21:48:18.684Z,89.20
2019-03-30T21:50:47.636Z,89.40
2019-03-30T21:53:16.528Z,89.40
2019-03-30T21:55:45.426Z,90.40
2019-03-30T21:58:14.256Z,90.50
2019-03-30T22:00:43.112Z,90.40
2019-03-30T22:03:12.018Z,90.50
2019-03-30T22:05:41.326Z,90.20
2019-03-30T22:08:10.134Z,90.60
2019-03-30T22:10:39.114Z,90.70
2019-03-30T22:13:07.904Z,90.10
2019-03-30T22:15:37.773Z,90.40
2019-03-30T22:18:06.700Z,90.40
2019-03-30T22:20:35.592Z,90.30
2019-03-30T22:23:04.375Z,90.40
2019-03-30T22:25:33.194Z,90.20
2019-03-30T22:28:02.039Z,90.00
2019-03-30T22:30:30.899Z,90.10
2019-03-30T22:32:59.668Z,90.00
2019-03-30T22:35:28.471Z,90.20
2019-03-30T22:37:57.393Z,90.00
2019-03-30T22:40:26.213Z,90.40
2019-03-30T22:42:55.205Z,90.30
2019-03-30T22:45:23.982Z,90.00
2019-03-30T22:47:52.810Z,90.30
2019-03-30T22:50:21.623Z,89.50
2019-03-30T22:52:50.431Z,89.20
2019-03-30T22:55:19.935Z,89.50
2019-03-30T22:57:48.742Z,88.90
2019-03-30T23:00:39.042Z,89.10
2019-03-30T23:03:06.983Z,88.70
2019-03-30T23:05:35.806Z,88.30
2019-03-30T23:08:04.932Z,87.90
2019-03-30T23:10:33.931Z,87.10
2019-03-30T23:13:02.889Z,87.60
2019-03-30T23:15:31.691Z,86.80
2019-03-30T23:18:00.495Z,86.60
2019-03-30T23:20:29.308Z,86.50
2019-03-30T23:22:58.140Z,85.40
2019-03-30T23:25:26.946Z,85.70
2019-03-30T23:27:55.755Z,85.30
2019-03-30T23:30:24.696Z,85.30
2019-03-30T23:32:53.507Z,84.80
2019-03-30T23:35:22.315Z,85.70
2019-03-30T23:37:51.163Z,85.00
2019-03-30T23:40:19.975Z,85.20
2019-03-30T23:42:48.799Z,85.10
2019-03-30T23:45:17.656Z,84.90
2019-03-30T23:47:46.460Z,85.30
2019-03-30T23:50:15.343Z,84.70
2019-03-30T23:52:44.152Z,85.10
2019-03-30T23:55:13.275Z,84.70
2019-03-30T23:57:42.187Z,84.20
